Nearby METAR Reports

 

LIBG - Grottaglie(Civ/A, Italy
Distance from station: NO 13km
Uppdaterad: 13/06/2024 08:50
Klart
Klart
 Vind från NNV
Vind: NNV 6 km/h
Temperatur: 26°C
Daggpunkt: 18°C
Luftfuktighet: 61%
Barometer: 1014 hPa
Summering: Klart
Visibility: greater than 10 km
2024/06/13 06:50 LIBG 130650Z 34003KT 300V360 CAVOK 26/18 Q1014
LIBH - Marina Di Ginosa, Italy
Distance from station: V 33km
Uppdaterad: 13/06/2024 08:55
Few Clouds
Few Clouds
 Vind från NV
Vind: NV 7 km/h
Temperatur: 26°C
Daggpunkt: 16°C
Luftfuktighet: 54%
Barometer: 1013 hPa
Clouds: Few Clouds
Visibility: 10 km
Cloud details: Few Clouds 1219 m
2024/06/13 06:55 LIBH 130655Z 32004KT 9999 FEW040 26/16 Q1013 RMK BKN SCT080 QUK 1 QUL 0 VIS MAR 20 KM VIS MIN 9999
 
LIBV - Gioia Del Colle, Italy
Distance from station: NV 45km
Uppdaterad: 13/06/2024 08:55
Klart
Klart
 Vind från V
Vind: V 20 km/h
Temperatur: 28°C
Daggpunkt: 11°C
Luftfuktighet: 35%
Barometer: 1015 hPa
Summering: Klart
Visibility: greater than 10 km
2024/06/13 06:55 LIBV 130655Z 28011KT CAVOK 28/11 Q1015
LIBR - Brindisi/Casale, Italy
Distance from station: ONO 62km
Uppdaterad: 13/06/2024 09:50
Klart
Klart
 Vind från NV
Vind: NV 11 km/h
Temperatur: 26°C
Daggpunkt: 20°C
Luftfuktighet: 70%
Barometer: 1014 hPa
Summering: Klart
Visibility: greater than 10 km
2024/06/13 07:50 LIBR 130750Z 32006KT 300V010 CAVOK 26/20 Q1014
 
LIBN - Lecce (it-Afb), Italy
Distance from station: OSO 79km
Uppdaterad: 13/06/2024 08:55
Few Clouds
Few Clouds
 Vind från varies
Vind: varies 0 km/h
Temperatur: 27°C
Heat Index: 30°C
Daggpunkt: 23°C
Luftfuktighet: 79%
Barometer: 1013 hPa
Clouds: Few Clouds
Visibility: 10 km
Cloud details: Few Clouds 762 m
2024/06/13 06:55 LIBN 130655Z /////KT 9999 FEW025 27/23 Q1013
LIBD - Bari/Palese Macc, Italy
Distance from station: NNV 85km
Uppdaterad: 13/06/2024 09:50
Klart
Klart
 Vind från NNV
Vind: NNV 13 km/h
Temperatur: 26°C
Daggpunkt: 15°C
Luftfuktighet: 51%
Barometer: 1014 hPa
Summering: Klart
Visibility: greater than 10 km
2024/06/13 07:50 LIBD 130750Z 34007KT 310V020 CAVOK 26/15 Q1014